Time;durP1;ratioP1;P1;durP2;ratioP2;P2;SDS_P1;SDS_P2;PMS_P1;PMS_P2;Temp;Humidity;BMP_temperature;BMP_pressure;BME280_temperature;BME280_humidity;BME280_pressure;Samples;Min_cycle;Max_cycle;Signal;HPM_P1;HPM_P2
2022/09/13 00:00:40;;;;;;;7.40;1.45;;;;;;;;;;5029911;28;20056;-67
2022/09/13 00:03:06;;;;;;;8.52;1.60;;;;;;;;;;5027256;28;20059;-67
2022/09/13 00:05:33;;;;;;;9.40;1.52;;;;;;;;;;5029757;28;20384;-65
2022/09/13 00:07:59;;;;;;;7.38;1.42;;;;;;;;;;5025641;28;20033;-65
2022/09/13 00:10:26;;;;;;;9.05;1.85;;;;;;;;;;5030422;28;20466;-65
2022/09/13 00:12:52;;;;;;;8.38;1.50;;;;;;;;;;5028653;28;20033;-68
2022/09/13 00:15:19;;;;;;;7.80;1.55;;;;;;;;;;5031636;28;20028;-68
2022/09/13 00:17:45;;;;;;;9.52;1.50;;;;;;;;;;5031171;28;20355;-68
2022/09/13 00:20:11;;;;;;;7.20;1.65;;;;;;;;;;5025888;28;23108;-65
2022/09/13 00:22:37;;;;;;;8.68;1.40;;;;;;;;;;5013760;28;20454;-66
2022/09/13 00:25:04;;;;;;;9.13;1.60;;;;;;;;;;5034030;28;20036;-66
2022/09/13 00:27:32;;;;;;;7.93;1.30;;;;;;;;;;5029892;28;20134;-65
2022/09/13 00:29:58;;;;;;;9.82;1.70;;;;;;;;;;5025826;28;20075;-66
2022/09/13 00:32:24;;;;;;;8.77;1.60;;;;;;;;;;5029784;28;20033;-66
2022/09/13 00:34:50;;;;;;;7.43;1.55;;;;;;;;;;5026639;28;20573;-66
2022/09/13 00:37:16;;;;;;;9.80;1.42;;;;;;;;;;5008659;28;20384;-66
2022/09/13 00:39:42;;;;;;;8.32;1.52;;;;;;;;;;5030408;28;20498;-66
2022/09/13 00:42:13;;;;;;;7.50;1.52;;;;;;;;;;5025995;28;20037;-65
2022/09/13 00:44:57;;;;;;;10.65;1.70;;;;;;;;;;5031122;28;20086;-66
2022/09/13 00:47:23;;;;;;;7.85;1.30;;;;;;;;;;5029549;28;20755;-66
2022/09/13 00:49:51;;;;;;;7.55;1.40;;;;;;;;;;5026383;28;20029;-66
2022/09/13 00:52:20;;;;;;;8.48;1.50;;;;;;;;;;5027557;28;20020;-66
2022/09/13 00:54:49;;;;;;;8.55;1.65;;;;;;;;;;5029540;28;20029;-66
2022/09/13 00:57:17;;;;;;;7.05;1.60;;;;;;;;;;5022317;28;20403;-66
2022/09/13 00:59:46;;;;;;;10.35;1.35;;;;;;;;;;5029966;28;20028;-66
2022/09/13 01:02:12;;;;;;;5.72;1.45;;;;;;;;;;5026450;28;20056;-66
2022/09/13 01:04:38;;;;;;;5.80;1.10;;;;;;;;;;5029837;28;20295;-66
2022/09/13 01:07:07;;;;;;;6.80;1.48;;;;;;;;;;5016699;28;20454;-65
2022/09/13 01:09:35;;;;;;;5.88;1.30;;;;;;;;;;5012346;28;20057;-65
2022/09/13 01:12:08;;;;;;;6.60;1.40;;;;;;;;;;5004232;28;20024;-65
2022/09/13 01:14:35;;;;;;;6.18;1.33;;;;;;;;;;5025115;28;20020;-65
2022/09/13 01:17:01;;;;;;;9.13;1.15;;;;;;;;;;5025181;28;20116;-66
2022/09/13 01:19:28;;;;;;;6.43;1.20;;;;;;;;;;5028855;28;20105;-65
2022/09/13 01:22:00;;;;;;;7.72;1.33;;;;;;;;;;5024111;28;20052;-65
2022/09/13 01:25:01;;;;;;;7.72;1.30;;;;;;;;;;5025163;28;20088;-66
2022/09/13 01:27:37;;;;;;;7.43;1.20;;;;;;;;;;4996111;28;20064;-66
2022/09/13 01:30:19;;;;;;;5.65;1.17;;;;;;;;;;4986180;28;20072;-66
2022/09/13 01:33:04;;;;;;;5.43;1.10;;;;;;;;;;4996258;28;20141;-66
2022/09/13 01:35:30;;;;;;;5.10;1.00;;;;;;;;;;4990475;28;20038;-66
2022/09/13 01:38:15;;;;;;;5.45;1.00;;;;;;;;;;4989942;28;20048;-66
2022/09/13 01:40:48;;;;;;;6.82;1.10;;;;;;;;;;4990425;28;20923;-66
2022/09/13 01:43:27;;;;;;;5.38;0.95;;;;;;;;;;4986505;28;20720;-66
2022/09/13 01:46:12;;;;;;;6.65;1.00;;;;;;;;;;4980566;28;20586;-67
2022/09/13 01:48:56;;;;;;;7.40;1.10;;;;;;;;;;4994530;28;20061;-66
2022/09/13 01:51:32;;;;;;;5.10;1.02;;;;;;;;;;4993087;28;20037;-66
2022/09/13 01:54:13;;;;;;;5.55;1.00;;;;;;;;;;4980137;28;20041;-66
2022/09/13 01:56:43;;;;;;;4.30;0.90;;;;;;;;;;4993084;28;20049;-66
2022/09/13 01:59:09;;;;;;;5.70;1.00;;;;;;;;;;4985406;28;20786;-66
2022/09/13 02:01:59;;;;;;;6.40;1.27;;;;;;;;;;5012369;28;20051;-66
2022/09/13 02:04:27;;;;;;;6.45;1.10;;;;;;;;;;5028154;28;20157;-66
2022/09/13 02:06:59;;;;;;;6.30;1.10;;;;;;;;;;5024991;28;20099;-66
2022/09/13 02:09:27;;;;;;;3.70;0.90;;;;;;;;;;5030811;28;20059;-66
2022/09/13 02:11:56;;;;;;;2.75;0.80;;;;;;;;;;5026751;28;20117;-66
2022/09/13 02:14:24;;;;;;;4.88;0.88;;;;;;;;;;5029249;28;20041;-66
2022/09/13 02:16:57;;;;;;;5.32;0.90;;;;;;;;;;5031891;28;20116;-66
2022/09/13 02:19:27;;;;;;;5.88;1.08;;;;;;;;;;5031250;28;20446;-66
2022/09/13 02:21:56;;;;;;;5.95;0.90;;;;;;;;;;5011641;28;20514;-66
2022/09/13 02:24:54;;;;;;;5.00;1.30;;;;;;;;;;5011279;28;20232;-66
2022/09/13 02:27:24;;;;;;;5.45;1.20;;;;;;;;;;4942371;28;20190;-66
2022/09/13 02:29:52;;;;;;;5.80;1.00;;;;;;;;;;4944673;28;20046;-67
2022/09/13 02:32:24;;;;;;;7.70;1.55;;;;;;;;;;4942445;28;20118;-66
2022/09/13 02:35:10;;;;;;;6.72;1.30;;;;;;;;;;4937922;28;20142;-66
2022/09/13 02:37:39;;;;;;;6.45;1.30;;;;;;;;;;4916582;28;20039;-66
2022/09/13 02:40:11;;;;;;;5.85;1.20;;;;;;;;;;4934994;28;20041;-66
2022/09/13 02:42:43;;;;;;;7.32;1.08;;;;;;;;;;4941643;28;20027;-66
2022/09/13 02:45:11;;;;;;;8.38;1.27;;;;;;;;;;4934622;28;20051;-66
2022/09/13 02:47:44;;;;;;;6.03;1.27;;;;;;;;;;4941338;28;20031;-66
2022/09/13 02:50:29;;;;;;;7.13;1.10;;;;;;;;;;4931206;28;20210;-67
2022/09/13 02:52:58;;;;;;;7.10;1.50;;;;;;;;;;4941101;28;20038;-67
2022/09/13 02:55:26;;;;;;;7.75;1.63;;;;;;;;;;4932457;28;20394;-66
2022/09/13 02:58:15;;;;;;;7.95;1.40;;;;;;;;;;4934303;28;20090;-66
2022/09/13 03:00:42;;;;;;;7.00;1.30;;;;;;;;;;4923294;28;20059;-66
2022/09/13 03:03:09;;;;;;;6.20;1.35;;;;;;;;;;4975231;28;20187;-66
2022/09/13 03:05:35;;;;;;;7.90;1.10;;;;;;;;;;5031808;28;20033;-66
2022/09/13 03:08:02;;;;;;;6.97;1.10;;;;;;;;;;5010578;28;20486;-66
2022/09/13 03:10:35;;;;;;;5.53;1.20;;;;;;;;;;5008231;28;20064;-66
2022/09/13 03:13:20;;;;;;;7.10;1.10;;;;;;;;;;5007686;28;20399;-66
2022/09/13 03:15:46;;;;;;;4.80;1.02;;;;;;;;;;5028215;28;20057;-66
2022/09/13 03:18:18;;;;;;;6.63;1.25;;;;;;;;;;5031710;28;20036;-66
2022/09/13 03:21:02;;;;;;;6.60;1.23;;;;;;;;;;5029368;28;20041;-66
2022/09/13 03:23:28;;;;;;;5.45;1.27;;;;;;;;;;5011840;28;20196;-66
2022/09/13 03:26:13;;;;;;;8.13;1.48;;;;;;;;;;5011033;28;20040;-66
2022/09/13 03:28:47;;;;;;;6.47;1.50;;;;;;;;;;5029860;28;20375;-66
2022/09/13 03:31:29;;;;;;;6.38;1.30;;;;;;;;;;5022516;28;20043;-66
2022/09/13 03:33:55;;;;;;;7.38;1.20;;;;;;;;;;5007915;28;20036;-66
2022/09/13 03:36:27;;;;;;;7.30;1.30;;;;;;;;;;5028540;28;20137;-66
2022/09/13 03:39:01;;;;;;;6.88;1.23;;;;;;;;;;5022380;28;20422;-66
2022/09/13 03:41:29;;;;;;;5.45;1.10;;;;;;;;;;5028886;28;20086;-66
2022/09/13 03:43:58;;;;;;;6.57;1.20;;;;;;;;;;5003561;28;20036;-66
2022/09/13 03:46:28;;;;;;;6.57;1.10;;;;;;;;;;5011645;28;20508;-66
2022/09/13 03:48:54;;;;;;;5.13;0.90;;;;;;;;;;5025986;28;20021;-67
2022/09/13 03:51:21;;;;;;;7.40;1.40;;;;;;;;;;5032051;28;20117;-66
2022/09/13 03:53:49;;;;;;;7.20;1.15;;;;;;;;;;5034777;28;20025;-66
2022/09/13 03:56:17;;;;;;;7.13;1.13;;;;;;;;;;5030023;28;20482;-66
2022/09/13 03:58:43;;;;;;;5.65;1.10;;;;;;;;;;5028636;28;20024;-66
2022/09/13 04:01:09;;;;;;;7.22;1.50;;;;;;;;;;5024486;28;20179;-67
2022/09/13 04:03:38;;;;;;;8.25;1.40;;;;;;;;;;5029304;28;20028;-66
2022/09/13 04:06:05;;;;;;;4.85;1.00;;;;;;;;;;5026631;28;20132;-66
2022/09/13 04:08:32;;;;;;;8.30;1.50;;;;;;;;;;5027435;28;20462;-66
2022/09/13 04:10:58;;;;;;;8.85;1.27;;;;;;;;;;5007424;28;20040;-66
2022/09/13 04:13:24;;;;;;;10.48;1.30;;;;;;;;;;5005164;28;20024;-66
2022/09/13 04:15:50;;;;;;;7.93;1.40;;;;;;;;;;5012159;28;20315;-66
2022/09/13 04:18:17;;;;;;;6.65;1.35;;;;;;;;;;5016991;28;20028;-66
2022/09/13 04:20:43;;;;;;;7.22;1.50;;;;;;;;;;5037524;28;20028;-69
2022/09/13 04:23:09;;;;;;;7.18;1.45;;;;;;;;;;5008496;28;20041;-66
2022/09/13 04:25:38;;;;;;;7.22;1.48;;;;;;;;;;5028477;28;20028;-66
2022/09/13 04:28:04;;;;;;;8.18;1.30;;;;;;;;;;5026995;28;20024;-65
2022/09/13 04:30:30;;;;;;;5.75;1.20;;;;;;;;;;5030212;28;20029;-66
2022/09/13 04:32:56;;;;;;;7.03;1.30;;;;;;;;;;5005085;28;20255;-68
2022/09/13 04:35:22;;;;;;;4.95;1.20;;;;;;;;;;5008655;28;20088;-65
2022/09/13 04:37:48;;;;;;;7.85;1.38;;;;;;;;;;5028568;28;20675;-65
2022/09/13 04:40:15;;;;;;;8.93;1.80;;;;;;;;;;5010918;28;20396;-67
2022/09/13 04:42:41;;;;;;;10.27;1.70;;;;;;;;;;5035277;28;20366;-67
2022/09/13 04:45:07;;;;;;;9.55;1.83;;;;;;;;;;5027616;28;20025;-67
2022/09/13 04:47:33;;;;;;;9.27;1.90;;;;;;;;;;5033108;28;20032;-67
2022/09/13 04:49:59;;;;;;;6.30;1.60;;;;;;;;;;5005379;28;20502;-67
2022/09/13 04:52:26;;;;;;;18.20;2.60;;;;;;;;;;5014633;28;20064;-67
2022/09/13 04:54:52;;;;;;;17.52;2.63;;;;;;;;;;5030762;28;20021;-67
2022/09/13 04:57:18;;;;;;;13.95;1.98;;;;;;;;;;5022252;28;20021;-66
2022/09/13 04:59:44;;;;;;;7.63;1.42;;;;;;;;;;5033425;28;20024;-66
2022/09/13 05:02:10;;;;;;;6.68;1.45;;;;;;;;;;5023361;28;20129;-67
2022/09/13 05:04:37;;;;;;;9.73;1.60;;;;;;;;;;5007039;28;20518;-67
2022/09/13 05:07:03;;;;;;;9.90;1.80;;;;;;;;;;5027645;28;20277;-66
2022/09/13 05:09:29;;;;;;;8.95;1.90;;;;;;;;;;5012811;28;20061;-67
2022/09/13 05:11:55;;;;;;;9.93;1.92;;;;;;;;;;5024383;28;20584;-66
2022/09/13 05:14:21;;;;;;;9.25;1.90;;;;;;;;;;5036935;28;20102;-66
2022/09/13 05:16:48;;;;;;;11.35;2.42;;;;;;;;;;5010072;28;20578;-65
2022/09/13 05:19:14;;;;;;;8.07;1.70;;;;;;;;;;5007018;28;20032;-67
2022/09/13 05:21:40;;;;;;;9.57;2.05;;;;;;;;;;5025736;28;20115;-68
2022/09/13 05:24:06;;;;;;;8.25;2.10;;;;;;;;;;5005699;28;20507;-69
2022/09/13 05:26:32;;;;;;;10.93;2.10;;;;;;;;;;5012052;28;20045;-67
2022/09/13 05:28:59;;;;;;;9.93;2.10;;;;;;;;;;5008645;28;20029;-69
2022/09/13 05:31:27;;;;;;;11.85;2.00;;;;;;;;;;5033116;28;20792;-66
2022/09/13 05:33:55;;;;;;;14.05;1.80;;;;;;;;;;5028768;28;20436;-69
2022/09/13 05:36:21;;;;;;;10.10;1.70;;;;;;;;;;5009956;28;20254;-67
2022/09/13 05:38:47;;;;;;;9.60;1.83;;;;;;;;;;5013592;28;20083;-69
2022/09/13 05:41:13;;;;;;;11.23;1.85;;;;;;;;;;5027992;28;20033;-67
2022/09/13 05:43:40;;;;;;;8.35;1.70;;;;;;;;;;5027346;28;20029;-68
2022/09/13 05:46:07;;;;;;;13.23;2.03;;;;;;;;;;5003859;28;20033;-65
2022/09/13 05:48:34;;;;;;;8.18;1.83;;;;;;;;;;5010871;28;20048;-68
2022/09/13 05:51:09;;;;;;;8.43;1.67;;;;;;;;;;5027985;28;20033;-68
2022/09/13 05:53:36;;;;;;;12.90;2.17;;;;;;;;;;5008909;28;20094;-66
2022/09/13 05:56:03;;;;;;;11.63;2.15;;;;;;;;;;5027406;28;20481;-69
2022/09/13 05:58:29;;;;;;;10.20;1.85;;;;;;;;;;5032790;28;20037;-67
2022/09/13 06:00:56;;;;;;;18.20;2.60;;;;;;;;;;5031309;28;20028;-66
2022/09/13 06:03:22;;;;;;;13.65;2.00;;;;;;;;;;5030054;28;20045;-66
2022/09/13 06:05:48;;;;;;;10.48;2.13;;;;;;;;;;5027235;28;20041;-66
2022/09/13 06:08:15;;;;;;;15.35;4.03;;;;;;;;;;5027176;28;20399;-66
2022/09/13 06:10:41;;;;;;;11.98;3.22;;;;;;;;;;5008501;28;20040;-66
2022/09/13 06:13:07;;;;;;;10.50;2.45;;;;;;;;;;5025166;28;20021;-66
2022/09/13 06:15:33;;;;;;;20.48;2.80;;;;;;;;;;5031298;28;20043;-66
2022/09/13 06:17:59;;;;;;;14.05;2.63;;;;;;;;;;5030768;28;20402;-66
2022/09/13 06:20:25;;;;;;;11.40;2.33;;;;;;;;;;5009781;28;20040;-68
2022/09/13 06:22:52;;;;;;;15.88;2.97;;;;;;;;;;5024155;28;20118;-67
2022/09/13 06:25:18;;;;;;;11.95;3.13;;;;;;;;;;5009313;28;20037;-66
2022/09/13 06:27:44;;;;;;;19.02;3.47;;;;;;;;;;5029971;28;20025;-66
2022/09/13 06:30:11;;;;;;;22.42;3.88;;;;;;;;;;5026296;28;20043;-68
2022/09/13 06:32:38;;;;;;;17.00;2.95;;;;;;;;;;5028713;28;20036;-67
2022/09/13 06:35:05;;;;;;;13.73;2.92;;;;;;;;;;5024002;28;20036;-67
2022/09/13 06:37:31;;;;;;;21.40;3.45;;;;;;;;;;5025214;28;20122;-67
2022/09/13 06:39:57;;;;;;;21.70;3.20;;;;;;;;;;5023599;28;20035;-67
2022/09/13 06:42:23;;;;;;;16.75;2.92;;;;;;;;;;5029463;28;20034;-66
2022/09/13 06:44:49;;;;;;;14.70;2.92;;;;;;;;;;5029821;28;20033;-66
2022/09/13 06:47:15;;;;;;;13.95;2.15;;;;;;;;;;5028928;28;20061;-66
2022/09/13 06:49:41;;;;;;;11.15;2.22;;;;;;;;;;5034751;28;20021;-66
2022/09/13 06:52:07;;;;;;;21.67;2.90;;;;;;;;;;5026528;28;21317;-67
2022/09/13 06:54:33;;;;;;;13.20;4.05;;;;;;;;;;5031988;28;20061;-67
2022/09/13 06:57:01;;;;;;;13.02;2.53;;;;;;;;;;5028931;28;20587;-66
2022/09/13 06:59:28;;;;;;;16.77;2.95;;;;;;;;;;5027560;28;20029;-66
2022/09/13 07:01:54;;;;;;;16.40;2.90;;;;;;;;;;5032478;28;20049;-66
2022/09/13 07:04:20;;;;;;;13.43;2.55;;;;;;;;;;5031908;28;20036;-67
2022/09/13 07:06:47;;;;;;;10.25;2.50;;;;;;;;;;5029584;28;20453;-67
2022/09/13 07:09:16;;;;;;;11.65;2.45;;;;;;;;;;5007925;28;20056;-67
2022/09/13 07:11:43;;;;;;;16.52;2.97;;;;;;;;;;5029992;28;20048;-67
2022/09/13 07:14:17;;;;;;;9.98;2.38;;;;;;;;;;5034268;28;20090;-66
2022/09/13 07:16:44;;;;;;;11.32;2.28;;;;;;;;;;5012856;28;20063;-67
2022/09/13 07:19:18;;;;;;;15.57;2.53;;;;;;;;;;5025782;28;20392;-66
2022/09/13 07:21:45;;;;;;;10.65;2.35;;;;;;;;;;5012243;28;20052;-66
2022/09/13 07:24:11;;;;;;;11.00;2.72;;;;;;;;;;5007368;28;22631;-67
2022/09/13 07:26:37;;;;;;;8.80;2.20;;;;;;;;;;5031064;28;20028;-67
2022/09/13 07:29:05;;;;;;;10.32;2.55;;;;;;;;;;5002829;28;20386;-67
2022/09/13 07:31:33;;;;;;;13.25;2.60;;;;;;;;;;5027919;28;20947;-67
2022/09/13 07:34:00;;;;;;;11.30;2.55;;;;;;;;;;5007481;28;20033;-68
2022/09/13 07:36:26;;;;;;;11.43;2.40;;;;;;;;;;5024946;28;20101;-67
2022/09/13 07:38:53;;;;;;;11.35;2.33;;;;;;;;;;5003687;28;20025;-66
2022/09/13 07:41:23;;;;;;;12.27;2.65;;;;;;;;;;5006660;28;20063;-67
2022/09/13 07:43:50;;;;;;;13.10;2.70;;;;;;;;;;5030029;28;20124;-66
2022/09/13 07:46:21;;;;;;;14.98;2.83;;;;;;;;;;5027629;28;20902;-66
2022/09/13 07:48:47;;;;;;;11.43;2.22;;;;;;;;;;5029853;28;20025;-66
2022/09/13 07:51:14;;;;;;;15.07;3.15;;;;;;;;;;5022576;28;20032;-66
2022/09/13 07:53:41;;;;;;;13.77;2.63;;;;;;;;;;5031930;28;20063;-66
2022/09/13 07:56:11;;;;;;;11.80;2.72;;;;;;;;;;5037302;28;20033;-67
2022/09/13 07:58:38;;;;;;;13.23;2.60;;;;;;;;;;5033151;28;20029;-67
2022/09/13 08:01:06;;;;;;;14.20;2.45;;;;;;;;;;5025676;28;20027;-66
2022/09/13 08:03:33;;;;;;;14.93;2.55;;;;;;;;;;5022429;28;20037;-67
2022/09/13 08:06:00;;;;;;;11.20;2.25;;;;;;;;;;5026104;28;20028;-68
2022/09/13 08:08:26;;;;;;;17.00;2.75;;;;;;;;;;5008119;28;20029;-66
2022/09/13 08:10:52;;;;;;;11.98;2.67;;;;;;;;;;5001647;28;20050;-66
2022/09/13 08:13:18;;;;;;;10.65;2.20;;;;;;;;;;5022016;28;20087;-68
2022/09/13 08:15:45;;;;;;;9.82;2.10;;;;;;;;;;5025793;28;20420;-66
2022/09/13 08:18:11;;;;;;;15.57;2.30;;;;;;;;;;5008272;28;20041;-67
2022/09/13 08:20:38;;;;;;;11.43;2.10;;;;;;;;;;5028461;28;20084;-67
2022/09/13 08:23:05;;;;;;;9.85;1.95;;;;;;;;;;5024202;28;20115;-66
2022/09/13 08:25:35;;;;;;;16.52;2.58;;;;;;;;;;5007403;28;20028;-66
2022/09/13 08:28:01;;;;;;;11.25;2.05;;;;;;;;;;5025151;28;20056;-67
2022/09/13 08:30:32;;;;;;;8.80;2.10;;;;;;;;;;5027844;28;20464;-68
2022/09/13 08:33:00;;;;;;;11.40;3.35;;;;;;;;;;5024238;28;20029;-67
2022/09/13 08:35:26;;;;;;;12.45;2.47;;;;;;;;;;5026938;28;20056;-66
2022/09/13 08:37:52;;;;;;;14.15;2.70;;;;;;;;;;5025306;28;20040;-66
2022/09/13 08:40:18;;;;;;;9.75;2.20;;;;;;;;;;5007652;28;20017;-67
2022/09/13 08:42:44;;;;;;;11.20;2.13;;;;;;;;;;5029532;28;20047;-68
2022/09/13 08:45:10;;;;;;;9.57;1.95;;;;;;;;;;5010080;28;20056;-67
2022/09/13 08:47:45;;;;;;;9.52;1.90;;;;;;;;;;5015346;28;20025;-67
2022/09/13 08:50:11;;;;;;;9.67;2.47;;;;;;;;;;5005579;28;20515;-66
2022/09/13 08:52:46;;;;;;;15.23;3.40;;;;;;;;;;5031918;28;20021;-68
2022/09/13 08:55:24;;;;;;;18.00;3.28;;;;;;;;;;5032655;28;20057;-67
2022/09/13 08:58:00;;;;;;;14.73;3.00;;;;;;;;;;5014626;28;20036;-67
2022/09/13 09:00:26;;;;;;;;;;;;;;;;;;5029634;28;20037;-67
2022/09/13 09:02:58;;;;;;;12.27;2.83;;;;;;;;;;5026704;28;19998;-66
2022/09/13 09:05:26;;;;;;;13.68;2.97;;;;;;;;;;5016265;28;20029;-67
2022/09/13 09:08:00;;;;;;;12.43;2.03;;;;;;;;;;5023723;28;20025;-67
2022/09/13 09:10:41;;;;;;;11.40;2.35;;;;;;;;;;5025842;28;20132;-67
2022/09/13 09:13:25;;;;;;;10.02;2.30;;;;;;;;;;5022779;28;20025;-67
2022/09/13 09:15:57;;;;;;;11.07;2.17;;;;;;;;;;5025256;28;20502;-66
2022/09/13 09:18:36;;;;;;;10.48;2.00;;;;;;;;;;5005903;28;20577;-67
2022/09/13 09:21:02;;;;;;;10.82;2.17;;;;;;;;;;5006720;28;20043;-67
2022/09/13 09:23:47;;;;;;;12.35;2.08;;;;;;;;;;5028309;28;20032;-69
2022/09/13 09:26:16;;;;;;;13.65;2.40;;;;;;;;;;5003286;28;20576;-66
2022/09/13 09:28:50;;;;;;;9.52;2.13;;;;;;;;;;5007795;28;20056;-67
2022/09/13 09:31:40;;;;;;;10.02;2.50;;;;;;;;;;5007763;28;20067;-66
2022/09/13 09:34:21;;;;;;;8.90;2.00;;;;;;;;;;5000817;28;20631;-67
2022/09/13 09:36:56;;;;;;;13.35;2.63;;;;;;;;;;5024586;28;20548;-67
2022/09/13 09:39:25;;;;;;;9.18;2.45;;;;;;;;;;5027426;28;20040;-68
2022/09/13 09:41:56;;;;;;;10.82;1.90;;;;;;;;;;5027274;28;20024;-68
2022/09/13 09:44:24;;;;;;;10.63;2.10;;;;;;;;;;5032710;28;20036;-68
2022/09/13 09:46:55;;;;;;;11.73;2.17;;;;;;;;;;5033352;28;20021;-66
2022/09/13 09:52:14;;;;;;;9.13;2.00;;;;;;;;;;5027380;28;20039;-67
2022/09/13 09:54:40;;;;;;;9.05;2.20;;;;;;;;;;5031613;28;20830;-67
2022/09/13 09:57:06;;;;;;;10.43;2.28;;;;;;;;;;5009411;28;20337;-67
2022/09/13 09:59:33;;;;;;;11.82;2.28;;;;;;;;;;5031721;28;20253;-67
2022/09/13 10:02:03;;;;;;;11.25;2.33;;;;;;;;;;5024376;28;20076;-69
2022/09/13 10:04:29;;;;;;;8.45;2.10;;;;;;;;;;5028092;28;20037;-68
2022/09/13 10:07:11;;;;;;;12.98;1.92;;;;;;;;;;5022981;28;20059;-66
2022/09/13 10:09:38;;;;;;;10.25;2.00;;;;;;;;;;5026958;28;20086;-68
2022/09/13 10:12:05;;;;;;;14.50;2.55;;;;;;;;;;5024268;28;20719;-68
2022/09/13 10:14:34;;;;;;;11.68;2.17;;;;;;;;;;5023140;28;20465;-68
2022/09/13 10:17:05;;;;;;;10.30;2.05;;;;;;;;;;5022137;28;20464;-67
2022/09/13 10:19:31;;;;;;;11.63;2.30;;;;;;;;;;5022321;28;20500;-70
2022/09/13 10:22:10;;;;;;;10.38;2.33;;;;;;;;;;5026663;28;20106;-67
2022/09/13 10:24:36;;;;;;;9.82;2.13;;;;;;;;;;5030127;28;20040;-67
2022/09/13 10:27:05;;;;;;;10.02;1.85;;;;;;;;;;5029564;28;20027;-67
2022/09/13 10:29:32;;;;;;;9.65;2.20;;;;;;;;;;5030038;28;20047;-67
2022/09/13 10:32:02;;;;;;;13.75;2.20;;;;;;;;;;5028928;28;20029;-68
2022/09/13 10:34:33;;;;;;;11.88;2.30;;;;;;;;;;5030363;28;20593;-68
2022/09/13 10:37:13;;;;;;;9.20;2.25;;;;;;;;;;5007489;28;20033;-67
2022/09/13 10:39:50;;;;;;;12.65;2.55;;;;;;;;;;5031074;28;20041;-68
2022/09/13 10:42:20;;;;;;;13.18;2.35;;;;;;;;;;5021335;28;20021;-67
2022/09/13 10:44:51;;;;;;;12.13;2.25;;;;;;;;;;5031157;28;20051;-66
2022/09/13 10:47:36;;;;;;;12.98;2.40;;;;;;;;;;5029829;28;20104;-66
2022/09/13 10:50:21;;;;;;;9.55;2.00;;;;;;;;;;5015812;28;20025;-66
2022/09/13 10:52:51;;;;;;;8.40;1.90;;;;;;;;;;5031849;28;20051;-66
2022/09/13 10:55:17;;;;;;;12.40;2.38;;;;;;;;;;5030762;28;20412;-67
2022/09/13 10:57:44;;;;;;;9.02;1.90;;;;;;;;;;5034078;28;20418;-67
2022/09/13 11:00:18;;;;;;;11.45;1.98;;;;;;;;;;5031972;28;20032;-68
2022/09/13 11:02:44;;;;;;;10.32;2.08;;;;;;;;;;5009260;28;20041;-67
2022/09/13 11:05:29;;;;;;;8.63;1.80;;;;;;;;;;5027471;28;20037;-68
2022/09/13 11:08:06;;;;;;;13.13;2.17;;;;;;;;;;5010512;28;20554;-67
2022/09/13 11:10:37;;;;;;;12.48;2.25;;;;;;;;;;5007492;28;20037;-68
2022/09/13 11:13:06;;;;;;;11.65;1.90;;;;;;;;;;5034647;28;20548;-67
2022/09/13 11:15:32;;;;;;;12.95;2.42;;;;;;;;;;5017628;28;20032;-67
2022/09/13 11:18:17;;;;;;;15.13;2.30;;;;;;;;;;5034622;28;20054;-67
2022/09/13 11:21:02;;;;;;;12.73;2.40;;;;;;;;;;5009546;28;20762;-67
2022/09/13 11:23:28;;;;;;;;;;;;;;;;;;5018102;28;20037;-67
2022/09/13 11:25:54;;;;;;;11.30;2.15;;;;;;;;;;5028739;28;20269;-67
2022/09/13 11:28:26;;;;;;;13.40;2.53;;;;;;;;;;5034690;28;20020;-67
2022/09/13 11:31:07;;;;;;;10.88;2.60;;;;;;;;;;5026556;28;20037;-66
2022/09/13 11:33:52;;;;;;;12.43;2.50;;;;;;;;;;5018028;28;20544;-68
2022/09/13 11:36:18;;;;;;;12.73;2.70;;;;;;;;;;5023707;28;20043;-67
2022/09/13 11:39:04;;;;;;;13.90;2.58;;;;;;;;;;5033381;28;20028;-68
2022/09/13 11:41:31;;;;;;;13.38;2.47;;;;;;;;;;5024946;28;20057;-67
2022/09/13 11:44:26;;;;;;;9.52;2.30;;;;;;;;;;5026940;28;20280;-66
2022/09/13 11:46:52;;;;;;;18.13;3.10;;;;;;;;;;4961924;28;20096;-66
2022/09/13 11:49:25;;;;;;;15.18;2.45;;;;;;;;;;4969956;28;20058;-69
2022/09/13 11:51:58;;;;;;;14.90;2.35;;;;;;;;;;4980700;28;20038;-69
2022/09/13 11:54:30;;;;;;;8.90;2.10;;;;;;;;;;4950886;28;20471;-68
2022/09/13 11:56:58;;;;;;;11.15;2.00;;;;;;;;;;4965002;28;20530;-69
2022/09/13 11:59:27;;;;;;;8.63;1.90;;;;;;;;;;4971756;28;20754;-69
2022/09/13 12:01:58;;;;;;;7.57;1.80;;;;;;;;;;4961577;28;20162;-67
2022/09/13 12:04:27;;;;;;;15.43;2.10;;;;;;;;;;4967269;28;20051;-67
2022/09/13 12:06:59;;;;;;;13.40;2.20;;;;;;;;;;4965041;28;20097;-66
2022/09/13 12:09:30;;;;;;;9.45;2.00;;;;;;;;;;4969369;28;20088;-67
2022/09/13 12:12:17;;;;;;;9.75;2.03;;;;;;;;;;4966125;28;20118;-68
2022/09/13 12:14:44;;;;;;;8.38;1.80;;;;;;;;;;4966436;28;20031;-68
2022/09/13 12:17:39;;;;;;;13.35;2.35;;;;;;;;;;4972041;28;20066;-69
2022/09/13 12:20:12;;;;;;;14.27;2.30;;;;;;;;;;4955810;28;20122;-67
2022/09/13 12:22:38;;;;;;;11.52;1.90;;;;;;;;;;4978014;28;20045;-67
2022/09/13 12:25:12;;;;;;;10.90;2.53;;;;;;;;;;4997638;28;20041;-67
2022/09/13 12:27:41;;;;;;;11.48;2.50;;;;;;;;;;5003827;28;20633;-67
2022/09/13 12:30:18;;;;;;;15.30;2.80;;;;;;;;;;4997312;28;20424;-68
2022/09/13 12:32:46;;;;;;;12.43;2.40;;;;;;;;;;5003782;28;20030;-68
2022/09/13 12:35:20;;;;;;;11.13;2.08;;;;;;;;;;5000655;28;20048;-68
2022/09/13 12:38:01;;;;;;;11.95;2.28;;;;;;;;;;5002137;28;20041;-67
2022/09/13 12:40:27;;;;;;;9.98;2.08;;;;;;;;;;5005693;28;20033;-68
2022/09/13 12:42:59;;;;;;;12.88;1.95;;;;;;;;;;4999659;28;20933;-69
2022/09/13 12:45:34;;;;;;;13.55;2.13;;;;;;;;;;5005250;28;20037;-68
2022/09/13 12:48:32;;;;;;;11.05;1.90;;;;;;;;;;5002539;28;20292;-67
2022/09/13 12:51:04;;;;;;;9.23;1.95;;;;;;;;;;4928878;28;20463;-68
2022/09/13 12:53:42;;;;;;;11.35;2.00;;;;;;;;;;4947150;28;20043;-67
2022/09/13 12:56:11;;;;;;;10.20;1.75;;;;;;;;;;4940240;28;20074;-67
2022/09/13 12:58:37;;;;;;;8.60;1.60;;;;;;;;;;4932168;28;20537;-67
2022/09/13 13:01:04;;;;;;;12.07;2.03;;;;;;;;;;4926157;28;20520;-68
2022/09/13 13:03:32;;;;;;;10.27;1.80;;;;;;;;;;4929845;28;20090;-68
2022/09/13 13:06:18;;;;;;;10.55;1.85;;;;;;;;;;4923636;28;20035;-67
2022/09/13 13:08:50;;;;;;;11.35;2.20;;;;;;;;;;4929378;28;20039;-67
2022/09/13 13:11:18;;;;;;;9.68;1.80;;;;;;;;;;4928056;28;20423;-68
2022/09/13 13:13:45;;;;;;;8.55;1.88;;;;;;;;;;4944515;28;20061;-68
2022/09/13 13:16:26;;;;;;;12.18;2.05;;;;;;;;;;4933023;28;20636;-67
2022/09/13 13:18:52;;;;;;;11.93;1.95;;;;;;;;;;4931836;28;20520;-67
2022/09/13 13:21:28;;;;;;;13.35;2.30;;;;;;;;;;4945738;28;20071;-67
2022/09/13 13:24:12;;;;;;;13.27;2.30;;;;;;;;;;4931839;28;20034;-69
2022/09/13 13:26:41;;;;;;;11.30;2.20;;;;;;;;;;4982251;28;20361;-69
2022/09/13 13:29:22;;;;;;;8.60;1.63;;;;;;;;;;5029003;28;20037;-68
2022/09/13 13:32:02;;;;;;;11.70;2.08;;;;;;;;;;5026587;28;20563;-68
2022/09/13 13:34:31;;;;;;;8.65;1.85;;;;;;;;;;5009533;28;20067;-68
2022/09/13 13:37:03;;;;;;;11.10;2.00;;;;;;;;;;5024278;28;20116;-69
2022/09/13 13:39:33;;;;;;;10.68;1.85;;;;;;;;;;5026160;28;20103;-68
2022/09/13 13:42:05;;;;;;;10.98;2.30;;;;;;;;;;5009311;28;20032;-67
2022/09/13 13:44:31;;;;;;;9.73;1.98;;;;;;;;;;5027907;28;20145;-68
2022/09/13 13:47:07;;;;;;;12.30;2.00;;;;;;;;;;5025485;28;20576;-69
2022/09/13 13:49:37;;;;;;;10.18;2.00;;;;;;;;;;5026015;28;20542;-68
2022/09/13 13:52:06;;;;;;;11.13;2.22;;;;;;;;;;5014676;28;20040;-68
2022/09/13 13:54:44;;;;;;;11.60;1.70;;;;;;;;;;5024151;28;20483;-67
2022/09/13 13:57:29;;;;;;;9.38;2.10;;;;;;;;;;5003451;28;20045;-68
2022/09/13 14:00:10;;;;;;;12.40;2.50;;;;;;;;;;5027427;28;20025;-66
2022/09/13 14:02:42;;;;;;;10.50;2.00;;;;;;;;;;5032808;28;20052;-67
2022/09/13 14:05:16;;;;;;;8.27;1.92;;;;;;;;;;5023910;28;20070;-68
2022/09/13 14:08:10;;;;;;;13.55;2.10;;;;;;;;;;5029656;28;20037;-68
2022/09/13 14:10:36;;;;;;;11.55;2.08;;;;;;;;;;5023278;28;20052;-67
2022/09/13 14:13:21;;;;;;;10.48;1.90;;;;;;;;;;5029403;28;20447;-68
2022/09/13 14:16:06;;;;;;;11.00;2.13;;;;;;;;;;5030220;28;20029;-69
2022/09/13 14:18:55;;;;;;;12.98;2.10;;;;;;;;;;5018255;28;20169;-67
2022/09/13 14:21:22;;;;;;;11.70;2.22;;;;;;;;;;4999215;28;20068;-68
2022/09/13 14:23:48;;;;;;;10.75;2.30;;;;;;;;;;5031080;28;20099;-67
2022/09/13 14:26:14;;;;;;;9.95;1.90;;;;;;;;;;5028392;28;20044;-68
2022/09/13 14:28:40;;;;;;;11.00;2.22;;;;;;;;;;5032708;28;20048;-68
2022/09/13 14:31:07;;;;;;;8.30;2.08;;;;;;;;;;5019691;28;20091;-67
2022/09/13 14:33:35;;;;;;;13.38;1.98;;;;;;;;;;5032056;28;20040;-68
2022/09/13 14:36:05;;;;;;;11.52;2.67;;;;;;;;;;5025450;28;20033;-68
2022/09/13 14:38:34;;;;;;;12.40;2.13;;;;;;;;;;5030954;28;20170;-68
2022/09/13 14:41:02;;;;;;;12.73;2.53;;;;;;;;;;5007060;28;20353;-68
2022/09/13 14:43:29;;;;;;;13.25;2.15;;;;;;;;;;5032617;28;20414;-68
2022/09/13 14:46:10;;;;;;;12.27;2.20;;;;;;;;;;5027134;28;20027;-68
2022/09/13 14:48:39;;;;;;;10.90;2.10;;;;;;;;;;5030208;28;20040;-67
2022/09/13 14:51:12;;;;;;;14.45;2.00;;;;;;;;;;5030420;28;20017;-67
2022/09/13 14:53:40;;;;;;;14.43;2.35;;;;;;;;;;5032639;28;20039;-67
2022/09/13 14:56:26;;;;;;;13.27;2.28;;;;;;;;;;5009860;28;20494;-67
2022/09/13 14:58:56;;;;;;;10.70;2.08;;;;;;;;;;5028524;28;20041;-66